sensor_id;sensor_type;location;lat;lon;timestamp;temperature;humidity
69206;SHT30;56319;48.920;2.332;2023-02-14T00:02:20;21.90;32.52
69206;SHT30;56319;48.920;2.332;2023-02-14T00:04:45;21.89;32.56
69206;SHT30;56319;48.920;2.332;2023-02-14T00:07:12;21.88;32.61
69206;SHT30;56319;48.920;2.332;2023-02-14T00:09:38;21.89;32.61
69206;SHT30;56319;48.920;2.332;2023-02-14T00:12:04;21.88;32.61
69206;SHT30;56319;48.920;2.332;2023-02-14T00:14:30;21.86;32.59
69206;SHT30;56319;48.920;2.332;2023-02-14T00:17:15;21.85;32.59
69206;SHT30;56319;48.920;2.332;2023-02-14T00:19:40;21.85;32.62
69206;SHT30;56319;48.920;2.332;2023-02-14T00:22:06;21.82;32.54
69206;SHT30;56319;48.920;2.332;2023-02-14T00:24:31;21.82;32.63
69206;SHT30;56319;48.920;2.332;2023-02-14T00:26:57;21.83;32.63
69206;SHT30;56319;48.920;2.332;2023-02-14T00:29:26;21.82;32.63
69206;SHT30;56319;48.920;2.332;2023-02-14T00:31:53;21.83;32.60
69206;SHT30;56319;48.920;2.332;2023-02-14T00:34:18;21.78;32.62
69206;SHT30;56319;48.920;2.332;2023-02-14T00:36:44;21.79;32.60
69206;SHT30;56319;48.920;2.332;2023-02-14T00:39:12;21.78;32.63
69206;SHT30;56319;48.920;2.332;2023-02-14T00:41:38;21.76;32.65
69206;SHT30;56319;48.920;2.332;2023-02-14T00:44:04;21.76;32.67
69206;SHT30;56319;48.920;2.332;2023-02-14T00:46:30;21.75;32.65
69206;SHT30;56319;48.920;2.332;2023-02-14T00:48:55;21.73;32.64
69206;SHT30;56319;48.920;2.332;2023-02-14T00:51:22;21.73;32.64
69206;SHT30;56319;48.920;2.332;2023-02-14T00:53:48;21.72;32.61
69206;SHT30;56319;48.920;2.332;2023-02-14T00:56:14;21.75;32.62
69206;SHT30;56319;48.920;2.332;2023-02-14T00:58:40;21.71;32.64
69206;SHT30;56319;48.920;2.332;2023-02-14T01:01:06;21.71;32.65
69206;SHT30;56319;48.920;2.332;2023-02-14T01:03:32;21.69;32.61
69206;SHT30;56319;48.920;2.332;2023-02-14T01:05:58;21.69;32.62
69206;SHT30;56319;48.920;2.332;2023-02-14T01:08:24;21.67;32.66
69206;SHT30;56319;48.920;2.332;2023-02-14T01:10:51;21.66;32.63
69206;SHT30;56319;48.920;2.332;2023-02-14T01:13:16;21.66;32.66
69206;SHT30;56319;48.920;2.332;2023-02-14T01:15:45;21.65;32.68
69206;SHT30;56319;48.920;2.332;2023-02-14T01:18:12;21.65;32.68
69206;SHT30;56319;48.920;2.332;2023-02-14T01:20:38;21.65;32.64
69206;SHT30;56319;48.920;2.332;2023-02-14T01:23:03;21.66;32.66
69206;SHT30;56319;48.920;2.332;2023-02-14T01:25:29;21.62;32.73
69206;SHT30;56319;48.920;2.332;2023-02-14T01:27:55;21.63;32.66
69206;SHT30;56319;48.920;2.332;2023-02-14T01:30:21;21.61;32.69
69206;SHT30;56319;48.920;2.332;2023-02-14T01:32:46;21.62;32.66
69206;SHT30;56319;48.920;2.332;2023-02-14T01:35:12;21.58;32.69
69206;SHT30;56319;48.920;2.332;2023-02-14T01:37:38;21.61;32.64
69206;SHT30;56319;48.920;2.332;2023-02-14T01:40:05;21.56;32.64
69206;SHT30;56319;48.920;2.332;2023-02-14T01:42:33;21.56;32.65
69206;SHT30;56319;48.920;2.332;2023-02-14T01:45:03;21.56;32.67
69206;SHT30;56319;48.920;2.332;2023-02-14T01:47:33;21.58;32.68
69206;SHT30;56319;48.920;2.332;2023-02-14T01:50:07;21.56;32.69
69206;SHT30;56319;48.920;2.332;2023-02-14T01:52:37;21.55;32.71
69206;SHT30;56319;48.920;2.332;2023-02-14T01:55:08;21.55;32.67
69206;SHT30;56319;48.920;2.332;2023-02-14T01:57:41;21.54;32.64
69206;SHT30;56319;48.920;2.332;2023-02-14T02:00:08;21.52;32.68
69206;SHT30;56319;48.920;2.332;2023-02-14T02:02:55;21.54;32.72
69206;SHT30;56319;48.920;2.332;2023-02-14T02:05:23;21.48;32.62
69206;SHT30;56319;48.920;2.332;2023-02-14T02:07:50;21.49;32.72
69206;SHT30;56319;48.920;2.332;2023-02-14T02:10:17;21.49;32.70
69206;SHT30;56319;48.920;2.332;2023-02-14T02:12:43;21.47;32.67
69206;SHT30;56319;48.920;2.332;2023-02-14T02:15:09;21.48;32.69
69206;SHT30;56319;48.920;2.332;2023-02-14T02:18:01;21.47;32.67
69206;SHT30;56319;48.920;2.332;2023-02-14T02:30:04;21.41;32.71
69206;SHT30;56319;48.920;2.332;2023-02-14T02:33:03;21.38;32.73
69206;SHT30;56319;48.920;2.332;2023-02-14T02:35:58;21.41;32.67
69206;SHT30;56319;48.920;2.332;2023-02-14T02:38:40;21.38;32.65
69206;SHT30;56319;48.920;2.332;2023-02-14T02:41:22;21.38;32.68
69206;SHT30;56319;48.920;2.332;2023-02-14T02:46:48;21.37;32.72
69206;SHT30;56319;48.920;2.332;2023-02-14T02:52:54;21.34;32.71
69206;SHT30;56319;48.920;2.332;2023-02-14T02:59:01;21.31;32.69
69206;SHT30;56319;48.920;2.332;2023-02-14T03:01:33;21.31;32.70
69206;SHT30;56319;48.920;2.332;2023-02-14T03:04:04;21.31;32.70
69206;SHT30;56319;48.920;2.332;2023-02-14T03:06:51;21.26;32.70
69206;SHT30;56319;48.920;2.332;2023-02-14T03:09:50;21.27;32.68
69206;SHT30;56319;48.920;2.332;2023-02-14T03:15:38;21.28;32.68
69206;SHT30;56319;48.920;2.332;2023-02-14T03:18:28;21.26;32.71
69206;SHT30;56319;48.920;2.332;2023-02-14T03:21:19;21.24;32.67
69206;SHT30;56319;48.920;2.332;2023-02-14T03:23:58;21.24;32.67
69206;SHT30;56319;48.920;2.332;2023-02-14T03:26:44;21.23;32.67
69206;SHT30;56319;48.920;2.332;2023-02-14T03:29:37;21.21;32.75
69206;SHT30;56319;48.920;2.332;2023-02-14T03:32:19;21.19;32.69
69206;SHT30;56319;48.920;2.332;2023-02-14T03:38:02;21.19;32.72
69206;SHT30;56319;48.920;2.332;2023-02-14T03:40:35;21.20;32.63
69206;SHT30;56319;48.920;2.332;2023-02-14T03:43:10;21.15;32.71
69206;SHT30;56319;48.920;2.332;2023-02-14T03:45:43;21.15;32.70
69206;SHT30;56319;48.920;2.332;2023-02-14T03:48:13;21.14;32.69
69206;SHT30;56319;48.920;2.332;2023-02-14T03:50:41;21.14;32.70
69206;SHT30;56319;48.920;2.332;2023-02-14T03:53:10;21.14;32.69
69206;SHT30;56319;48.920;2.332;2023-02-14T03:55:45;21.14;32.72
69206;SHT30;56319;48.920;2.332;2023-02-14T03:58:31;21.11;32.64
69206;SHT30;56319;48.920;2.332;2023-02-14T04:01:07;21.11;32.70
69206;SHT30;56319;48.920;2.332;2023-02-14T04:03:38;21.10;32.69
69206;SHT30;56319;48.920;2.332;2023-02-14T04:06:05;21.11;32.72
69206;SHT30;56319;48.920;2.332;2023-02-14T04:08:30;21.08;32.70
69206;SHT30;56319;48.920;2.332;2023-02-14T04:10:59;21.06;32.73
69206;SHT30;56319;48.920;2.332;2023-02-14T04:13:25;21.08;32.67
69206;SHT30;56319;48.920;2.332;2023-02-14T04:15:50;21.06;32.65
69206;SHT30;56319;48.920;2.332;2023-02-14T04:18:16;21.04;32.73
69206;SHT30;56319;48.920;2.332;2023-02-14T04:21:01;21.03;32.69
69206;SHT30;56319;48.920;2.332;2023-02-14T04:23:27;21.06;32.74
69206;SHT30;56319;48.920;2.332;2023-02-14T04:25:53;21.03;32.66
69206;SHT30;56319;48.920;2.332;2023-02-14T04:28:18;21.04;32.69
69206;SHT30;56319;48.920;2.332;2023-02-14T04:30:44;20.99;32.68
69206;SHT30;56319;48.920;2.332;2023-02-14T04:33:09;21.00;32.66
69206;SHT30;56319;48.920;2.332;2023-02-14T04:35:35;20.99;32.66
69206;SHT30;56319;48.920;2.332;2023-02-14T04:38:02;21.02;32.63
69206;SHT30;56319;48.920;2.332;2023-02-14T04:40:29;21.02;32.70
69206;SHT30;56319;48.920;2.332;2023-02-14T04:42:55;20.97;32.65
69206;SHT30;56319;48.920;2.332;2023-02-14T04:45:20;20.99;32.67
69206;SHT30;56319;48.920;2.332;2023-02-14T04:47:46;20.93;32.67
69206;SHT30;56319;48.920;2.332;2023-02-14T04:50:12;20.94;32.64
69206;SHT30;56319;48.920;2.332;2023-02-14T04:52:38;20.97;32.67
69206;SHT30;56319;48.920;2.332;2023-02-14T04:55:05;20.94;32.64
69206;SHT30;56319;48.920;2.332;2023-02-14T04:57:31;20.93;32.64
69206;SHT30;56319;48.920;2.332;2023-02-14T04:59:57;20.92;32.68
69206;SHT30;56319;48.920;2.332;2023-02-14T05:02:22;20.92;32.68
69206;SHT30;56319;48.920;2.332;2023-02-14T05:04:48;20.93;32.62
69206;SHT30;56319;48.920;2.332;2023-02-14T05:07:13;20.90;32.65
69206;SHT30;56319;48.920;2.332;2023-02-14T05:09:38;20.87;32.65
69206;SHT30;56319;48.920;2.332;2023-02-14T05:12:04;20.87;32.64
69206;SHT30;56319;48.920;2.332;2023-02-14T05:14:30;20.87;32.64
69206;SHT30;56319;48.920;2.332;2023-02-14T05:16:55;20.86;32.64
69206;SHT30;56319;48.920;2.332;2023-02-14T05:19:21;20.86;32.62
69206;SHT30;56319;48.920;2.332;2023-02-14T05:21:46;20.85;32.71
69206;SHT30;56319;48.920;2.332;2023-02-14T05:24:12;20.86;32.68
69206;SHT30;56319;48.920;2.332;2023-02-14T05:26:37;20.83;32.66
69206;SHT30;56319;48.920;2.332;2023-02-14T05:29:03;20.85;32.60
69206;SHT30;56319;48.920;2.332;2023-02-14T05:31:29;20.83;32.59
69206;SHT30;56319;48.920;2.332;2023-02-14T05:33:54;20.82;32.60
69206;SHT30;56319;48.920;2.332;2023-02-14T05:36:20;20.82;32.60
69206;SHT30;56319;48.920;2.332;2023-02-14T05:38:45;20.80;32.62
69206;SHT30;56319;48.920;2.332;2023-02-14T05:41:11;20.82;32.60
69206;SHT30;56319;48.920;2.332;2023-02-14T05:43:36;20.79;32.60
69206;SHT30;56319;48.920;2.332;2023-02-14T05:46:01;20.80;32.58
69206;SHT30;56319;48.920;2.332;2023-02-14T05:48:27;20.75;32.63
69206;SHT30;56319;48.920;2.332;2023-02-14T05:50:52;20.76;32.65
69206;SHT30;56319;48.920;2.332;2023-02-14T05:53:18;20.75;32.60
69206;SHT30;56319;48.920;2.332;2023-02-14T05:55:44;20.76;32.59
69206;SHT30;56319;48.920;2.332;2023-02-14T05:58:09;20.72;32.61
69206;SHT30;56319;48.920;2.332;2023-02-14T06:00:36;20.73;32.59
69206;SHT30;56319;48.920;2.332;2023-02-14T06:03:02;20.75;32.62
69206;SHT30;56319;48.920;2.332;2023-02-14T06:05:27;20.72;32.59
69206;SHT30;56319;48.920;2.332;2023-02-14T06:07:53;20.69;32.64
69206;SHT30;56319;48.920;2.332;2023-02-14T06:10:21;20.71;32.56
69206;SHT30;56319;48.920;2.332;2023-02-14T06:12:49;20.68;32.59
69206;SHT30;56319;48.920;2.332;2023-02-14T06:15:15;20.69;32.61
69206;SHT30;56319;48.920;2.332;2023-02-14T06:17:40;20.66;32.62
69206;SHT30;56319;48.920;2.332;2023-02-14T06:20:07;20.68;32.59
69206;SHT30;56319;48.920;2.332;2023-02-14T06:22:34;20.66;32.63
69206;SHT30;56319;48.920;2.332;2023-02-14T06:25:00;20.68;32.60
69206;SHT30;56319;48.920;2.332;2023-02-14T06:27:28;20.64;32.62
69206;SHT30;56319;48.920;2.332;2023-02-14T06:29:54;20.64;32.60
69206;SHT30;56319;48.920;2.332;2023-02-14T06:32:19;20.64;32.60
69206;SHT30;56319;48.920;2.332;2023-02-14T06:34:45;20.62;32.56
69206;SHT30;56319;48.920;2.332;2023-02-14T06:37:10;20.62;32.60
69206;SHT30;56319;48.920;2.332;2023-02-14T06:39:36;20.61;32.57
69206;SHT30;56319;48.920;2.332;2023-02-14T06:42:01;20.59;32.63
69206;SHT30;56319;48.920;2.332;2023-02-14T06:44:27;20.58;32.57
69206;SHT30;56319;48.920;2.332;2023-02-14T06:46:52;20.58;32.57
69206;SHT30;56319;48.920;2.332;2023-02-14T06:49:18;20.58;32.58
69206;SHT30;56319;48.920;2.332;2023-02-14T06:51:43;20.55;32.53
69206;SHT30;56319;48.920;2.332;2023-02-14T06:54:09;20.58;32.53
69206;SHT30;56319;48.920;2.332;2023-02-14T06:56:35;20.56;32.61
69206;SHT30;56319;48.920;2.332;2023-02-14T06:59:00;20.55;32.56
69206;SHT30;56319;48.920;2.332;2023-02-14T07:01:26;20.53;32.58
69206;SHT30;56319;48.920;2.332;2023-02-14T07:03:51;20.53;32.58
69206;SHT30;56319;48.920;2.332;2023-02-14T07:06:17;20.56;32.59
69206;SHT30;56319;48.920;2.332;2023-02-14T07:08:42;20.53;32.61
69206;SHT30;56319;48.920;2.332;2023-02-14T07:11:08;20.51;32.62
69206;SHT30;56319;48.920;2.332;2023-02-14T07:13:33;20.49;32.63
69206;SHT30;56319;48.920;2.332;2023-02-14T07:15:59;20.49;32.65
69206;SHT30;56319;48.920;2.332;2023-02-14T07:18:25;20.49;32.61
69206;SHT30;56319;48.920;2.332;2023-02-14T07:20:50;20.49;32.63
69206;SHT30;56319;48.920;2.332;2023-02-14T07:23:16;20.48;32.60
69206;SHT30;56319;48.920;2.332;2023-02-14T07:25:42;20.48;32.70
69206;SHT30;56319;48.920;2.332;2023-02-14T07:28:07;20.47;32.75
69206;SHT30;56319;48.920;2.332;2023-02-14T07:30:33;20.49;33.11
69206;SHT30;56319;48.920;2.332;2023-02-14T07:32:58;20.49;33.18
69206;SHT30;56319;48.920;2.332;2023-02-14T07:35:24;20.52;33.46
69206;SHT30;56319;48.920;2.332;2023-02-14T07:37:50;20.55;34.29
69206;SHT30;56319;48.920;2.332;2023-02-14T07:40:16;20.55;34.39
69206;SHT30;56319;48.920;2.332;2023-02-14T07:42:42;20.62;35.03
69206;SHT30;56319;48.920;2.332;2023-02-14T07:45:09;20.68;35.12
69206;SHT30;56319;48.920;2.332;2023-02-14T07:47:35;20.72;35.19
69206;SHT30;56319;48.920;2.332;2023-02-14T07:50:00;20.75;35.28
69206;SHT30;56319;48.920;2.332;2023-02-14T07:52:26;20.82;35.42
69206;SHT30;56319;48.920;2.332;2023-02-14T07:54:51;20.86;35.61
69206;SHT30;56319;48.920;2.332;2023-02-14T07:57:17;20.92;35.67
69206;SHT30;56319;48.920;2.332;2023-02-14T07:59:42;20.96;35.81
69206;SHT30;56319;48.920;2.332;2023-02-14T08:02:10;21.02;35.84
69206;SHT30;56319;48.920;2.332;2023-02-14T08:04:36;21.06;36.02
69206;SHT30;56319;48.920;2.332;2023-02-14T08:07:02;21.10;36.04
69206;SHT30;56319;48.920;2.332;2023-02-14T08:09:27;21.14;35.96
69206;SHT30;56319;48.920;2.332;2023-02-14T08:11:55;21.17;36.17
69206;SHT30;56319;48.920;2.332;2023-02-14T08:14:42;21.24;36.01
69206;SHT30;56319;48.920;2.332;2023-02-14T08:17:08;21.30;36.10
69206;SHT30;56319;48.920;2.332;2023-02-14T08:19:35;21.39;35.98
69206;SHT30;56319;48.920;2.332;2023-02-14T08:22:02;21.48;35.88
69206;SHT30;56319;48.920;2.332;2023-02-14T08:24:27;21.61;35.81
69206;SHT30;56319;48.920;2.332;2023-02-14T08:26:53;21.71;35.74
69206;SHT30;56319;48.920;2.332;2023-02-14T08:29:19;21.82;35.62
69206;SHT30;56319;48.920;2.332;2023-02-14T08:31:45;21.92;35.44
69206;SHT30;56319;48.920;2.332;2023-02-14T08:34:12;22.01;35.31
69206;SHT30;56319;48.920;2.332;2023-02-14T08:36:38;22.16;35.15
69206;SHT30;56319;48.920;2.332;2023-02-14T08:39:04;22.25;35.08
69206;SHT30;56319;48.920;2.332;2023-02-14T08:41:30;22.37;35.05
69206;SHT30;56319;48.920;2.332;2023-02-14T08:43:56;22.44;34.99
69206;SHT30;56319;48.920;2.332;2023-02-14T08:46:21;22.52;34.89
69206;SHT30;56319;48.920;2.332;2023-02-14T08:48:47;22.58;34.84
69206;SHT30;56319;48.920;2.332;2023-02-14T08:51:14;22.66;34.75
69206;SHT30;56319;48.920;2.332;2023-02-14T08:53:41;22.72;34.73
69206;SHT30;56319;48.920;2.332;2023-02-14T08:56:11;22.79;34.66
69206;SHT30;56319;48.920;2.332;2023-02-14T08:58:37;22.86;34.59
69206;SHT30;56319;48.920;2.332;2023-02-14T09:01:09;22.95;34.55
69206;SHT30;56319;48.920;2.332;2023-02-14T09:03:34;22.97;34.43
69206;SHT30;56319;48.920;2.332;2023-02-14T09:06:03;23.06;34.42
69206;SHT30;56319;48.920;2.332;2023-02-14T09:08:30;23.07;34.30
69206;SHT30;56319;48.920;2.332;2023-02-14T09:10:56;23.11;34.28
69206;SHT30;56319;48.920;2.332;2023-02-14T09:13:22;23.16;34.15
69206;SHT30;56319;48.920;2.332;2023-02-14T09:15:48;23.17;34.01
69206;SHT30;56319;48.920;2.332;2023-02-14T09:18:13;23.23;33.96
69206;SHT30;56319;48.920;2.332;2023-02-14T09:20:40;23.24;33.83
69206;SHT30;56319;48.920;2.332;2023-02-14T09:23:08;23.27;33.79
69206;SHT30;56319;48.920;2.332;2023-02-14T09:25:34;23.28;33.77
69206;SHT30;56319;48.920;2.332;2023-02-14T09:27:59;23.33;34.11
69206;SHT30;56319;48.920;2.332;2023-02-14T09:30:25;23.37;34.33
69206;SHT30;56319;48.920;2.332;2023-02-14T09:32:52;23.41;34.43
69206;SHT30;56319;48.920;2.332;2023-02-14T09:35:17;23.44;34.53
69206;SHT30;56319;48.920;2.332;2023-02-14T09:37:43;23.45;34.64
69206;SHT30;56319;48.920;2.332;2023-02-14T09:40:12;23.48;34.73
69206;SHT30;56319;48.920;2.332;2023-02-14T09:45:31;23.57;34.63
69206;SHT30;56319;48.920;2.332;2023-02-14T09:48:05;23.57;34.68
69206;SHT30;56319;48.920;2.332;2023-02-14T09:50:40;23.63;34.68
69206;SHT30;56319;48.920;2.332;2023-02-14T09:53:16;23.63;34.72
69206;SHT30;56319;48.920;2.332;2023-02-14T09:55:51;23.69;34.68
69206;SHT30;56319;48.920;2.332;2023-02-14T09:58:22;23.72;34.82
69206;SHT30;56319;48.920;2.332;2023-02-14T10:04:19;23.79;34.81
69206;SHT30;56319;48.920;2.332;2023-02-14T10:06:57;23.80;34.87
69206;SHT30;56319;48.920;2.332;2023-02-14T10:09:40;23.83;34.89
69206;SHT30;56319;48.920;2.332;2023-02-14T10:12:23;23.90;34.94
69206;SHT30;56319;48.920;2.332;2023-02-14T10:14:52;23.92;35.03
69206;SHT30;56319;48.920;2.332;2023-02-14T10:17:40;23.99;35.13
69206;SHT30;56319;48.920;2.332;2023-02-14T10:20:20;24.02;35.15
69206;SHT30;56319;48.920;2.332;2023-02-14T10:22:53;24.04;34.97
69206;SHT30;56319;48.920;2.332;2023-02-14T10:25:26;24.09;34.94
69206;SHT30;56319;48.920;2.332;2023-02-14T10:27:57;24.13;35.15
69206;SHT30;56319;48.920;2.332;2023-02-14T10:30:23;24.14;35.16
69206;SHT30;56319;48.920;2.332;2023-02-14T10:36:02;24.25;35.12
69206;SHT30;56319;48.920;2.332;2023-02-14T10:38:53;24.28;34.93
69206;SHT30;56319;48.920;2.332;2023-02-14T10:41:44;24.32;34.94
69206;SHT30;56319;48.920;2.332;2023-02-14T10:44:43;24.42;34.60
69206;SHT30;56319;48.920;2.332;2023-02-14T10:50:28;24.51;34.41
69206;SHT30;56319;48.920;2.332;2023-02-14T10:56:01;24.57;34.18
69206;SHT30;56319;48.920;2.332;2023-02-14T10:58:33;24.62;34.10
69206;SHT30;56319;48.920;2.332;2023-02-14T11:01:08;24.64;33.99
69206;SHT30;56319;48.920;2.332;2023-02-14T11:03:37;24.66;33.94
69206;SHT30;56319;48.920;2.332;2023-02-14T11:06:03;24.71;33.91
69206;SHT30;56319;48.920;2.332;2023-02-14T11:08:34;24.76;33.78
69206;SHT30;56319;48.920;2.332;2023-02-14T11:13:55;24.80;33.64
69206;SHT30;56319;48.920;2.332;2023-02-14T11:16:41;24.85;33.48
69206;SHT30;56319;48.920;2.332;2023-02-14T11:19:18;24.90;33.50
69206;SHT30;56319;48.920;2.332;2023-02-14T11:21:45;24.93;33.42
69206;SHT30;56319;48.920;2.332;2023-02-14T11:24:33;24.96;33.32
69206;SHT30;56319;48.920;2.332;2023-02-14T11:27:04;25.00;33.27
69206;SHT30;56319;48.920;2.332;2023-02-14T11:29:35;25.03;33.23
69206;SHT30;56319;48.920;2.332;2023-02-14T11:32:11;25.07;33.12
69206;SHT30;56319;48.920;2.332;2023-02-14T11:34:40;25.11;33.10
69206;SHT30;56319;48.920;2.332;2023-02-14T11:37:28;25.14;32.98
69206;SHT30;56319;48.920;2.332;2023-02-14T11:39:57;25.19;32.91
69206;SHT30;56319;48.920;2.332;2023-02-14T11:42:44;25.24;32.81
69206;SHT30;56319;48.920;2.332;2023-02-14T11:45:32;25.28;32.78
69206;SHT30;56319;48.920;2.332;2023-02-14T11:48:22;25.34;32.73
69206;SHT30;56319;48.920;2.332;2023-02-14T11:51:09;25.37;32.66
69206;SHT30;56319;48.920;2.332;2023-02-14T11:53:53;25.41;32.59
69206;SHT30;56319;48.920;2.332;2023-02-14T11:56:22;25.47;32.53
69206;SHT30;56319;48.920;2.332;2023-02-14T11:58:55;25.54;32.39
69206;SHT30;56319;48.920;2.332;2023-02-14T12:01:31;25.58;32.35
69206;SHT30;56319;48.920;2.332;2023-02-14T12:04:00;25.61;32.35
69206;SHT30;56319;48.920;2.332;2023-02-14T12:06:30;25.68;32.27
69206;SHT30;56319;48.920;2.332;2023-02-14T12:12:00;25.76;32.11
69206;SHT30;56319;48.920;2.332;2023-02-14T12:14:30;25.78;32.08
69206;SHT30;56319;48.920;2.332;2023-02-14T12:17:04;25.85;32.02
69206;SHT30;56319;48.920;2.332;2023-02-14T12:22:30;25.94;31.91
69206;SHT30;56319;48.920;2.332;2023-02-14T12:25:04;25.97;31.88
69206;SHT30;56319;48.920;2.332;2023-02-14T12:27:47;26.01;31.75
69206;SHT30;56319;48.920;2.332;2023-02-14T12:30:18;26.06;31.72
69206;SHT30;56319;48.920;2.332;2023-02-14T12:32:48;26.10;31.75
69206;SHT30;56319;48.920;2.332;2023-02-14T12:35:34;26.14;32.20
69206;SHT30;56319;48.920;2.332;2023-02-14T12:38:10;26.17;32.28
69206;SHT30;56319;48.920;2.332;2023-02-14T12:41:06;26.21;32.33
69206;SHT30;56319;48.920;2.332;2023-02-14T12:43:45;26.24;32.54
69206;SHT30;56319;48.920;2.332;2023-02-14T12:46:34;26.28;32.74
69206;SHT30;56319;48.920;2.332;2023-02-14T12:55:35;26.41;32.77
69206;SHT30;56319;48.920;2.332;2023-02-14T12:58:14;26.45;32.94
69206;SHT30;56319;48.920;2.332;2023-02-14T13:06:54;26.59;32.99
69206;SHT30;56319;48.920;2.332;2023-02-14T13:12:37;26.71;32.95
69206;SHT30;56319;48.920;2.332;2023-02-14T13:18:30;26.83;32.84
69206;SHT30;56319;48.920;2.332;2023-02-14T13:21:02;26.92;33.08
69206;SHT30;56319;48.920;2.332;2023-02-14T13:23:39;26.95;32.73
69206;SHT30;56319;48.920;2.332;2023-02-14T13:26:13;27.00;32.78
69206;SHT30;56319;48.920;2.332;2023-02-14T13:29:02;27.03;32.83
69206;SHT30;56319;48.920;2.332;2023-02-14T13:31:29;27.06;32.80
69206;SHT30;56319;48.920;2.332;2023-02-14T13:33:59;27.07;32.73
69206;SHT30;56319;48.920;2.332;2023-02-14T13:36:27;27.10;32.66
69206;SHT30;56319;48.920;2.332;2023-02-14T13:38:54;27.15;32.58
69206;SHT30;56319;48.920;2.332;2023-02-14T13:41:21;27.18;32.38
69206;SHT30;56319;48.920;2.332;2023-02-14T13:43:52;27.20;32.25
69206;SHT30;56319;48.920;2.332;2023-02-14T13:49:31;27.23;31.91
69206;SHT30;56319;48.920;2.332;2023-02-14T13:52:02;27.23;31.80
69206;SHT30;56319;48.920;2.332;2023-02-14T13:54:41;27.21;31.70
69206;SHT30;56319;48.920;2.332;2023-02-14T13:57:31;27.18;31.76
69206;SHT30;56319;48.920;2.332;2023-02-14T14:00:20;27.20;31.64
69206;SHT30;56319;48.920;2.332;2023-02-14T14:02:51;27.21;31.84
69206;SHT30;56319;48.920;2.332;2023-02-14T14:08:43;27.20;32.22
69206;SHT30;56319;48.920;2.332;2023-02-14T14:14:01;27.20;32.01
69206;SHT30;56319;48.920;2.332;2023-02-14T14:16:31;27.23;31.92
69206;SHT30;56319;48.920;2.332;2023-02-14T14:22:09;27.21;31.37
69206;SHT30;56319;48.920;2.332;2023-02-14T14:24:38;27.20;31.49
69206;SHT30;56319;48.920;2.332;2023-02-14T14:27:21;27.20;31.36
69206;SHT30;56319;48.920;2.332;2023-02-14T14:29:53;27.18;31.29
69206;SHT30;56319;48.920;2.332;2023-02-14T14:32:25;27.17;31.31
69206;SHT30;56319;48.920;2.332;2023-02-14T14:34:54;27.15;31.28
69206;SHT30;56319;48.920;2.332;2023-02-14T14:37:23;27.15;31.29
69206;SHT30;56319;48.920;2.332;2023-02-14T14:39:51;27.18;31.29
69206;SHT30;56319;48.920;2.332;2023-02-14T14:42:18;27.21;31.34
69206;SHT30;56319;48.920;2.332;2023-02-14T14:44:49;27.23;31.30
69206;SHT30;56319;48.920;2.332;2023-02-14T14:47:20;27.23;31.34
69206;SHT30;56319;48.920;2.332;2023-02-14T14:49:47;27.24;31.34
69206;SHT30;56319;48.920;2.332;2023-02-14T14:52:34;27.24;31.27
69206;SHT30;56319;48.920;2.332;2023-02-14T14:55:05;27.26;31.27
69206;SHT30;56319;48.920;2.332;2023-02-14T14:57:34;27.27;31.23
69206;SHT30;56319;48.920;2.332;2023-02-14T15:00:16;27.24;31.26
69206;SHT30;56319;48.920;2.332;2023-02-14T15:03:02;27.24;31.26
69206;SHT30;56319;48.920;2.332;2023-02-14T15:05:36;27.26;31.24
69206;SHT30;56319;48.920;2.332;2023-02-14T15:08:28;27.26;31.26
69206;SHT30;56319;48.920;2.332;2023-02-14T15:14:07;27.21;31.43
69206;SHT30;56319;48.920;2.332;2023-02-14T15:16:52;27.17;31.41
69206;SHT30;56319;48.920;2.332;2023-02-14T15:19:30;27.11;31.54
69206;SHT30;56319;48.920;2.332;2023-02-14T15:22:01;27.06;31.56
69206;SHT30;56319;48.920;2.332;2023-02-14T15:24:27;27.04;31.57
69206;SHT30;56319;48.920;2.332;2023-02-14T15:26:55;27.03;31.64
69206;SHT30;56319;48.920;2.332;2023-02-14T15:29:26;26.99;31.64
69206;SHT30;56319;48.920;2.332;2023-02-14T15:31:52;26.97;31.62
69206;SHT30;56319;48.920;2.332;2023-02-14T15:34:24;26.95;31.65
69206;SHT30;56319;48.920;2.332;2023-02-14T15:36:53;26.93;31.57
69206;SHT30;56319;48.920;2.332;2023-02-14T15:39:28;26.90;31.59
69206;SHT30;56319;48.920;2.332;2023-02-14T15:41:56;26.86;31.58
69206;SHT30;56319;48.920;2.332;2023-02-14T15:44:24;26.82;31.46
69206;SHT30;56319;48.920;2.332;2023-02-14T15:46:56;26.76;31.35
69206;SHT30;56319;48.920;2.332;2023-02-14T15:49:30;26.73;31.24
69206;SHT30;56319;48.920;2.332;2023-02-14T15:51:59;26.68;31.10
69206;SHT30;56319;48.920;2.332;2023-02-14T15:54:41;26.62;30.99
69206;SHT30;56319;48.920;2.332;2023-02-14T15:57:22;26.55;30.92
69206;SHT30;56319;48.920;2.332;2023-02-14T15:59:48;26.51;31.00
69206;SHT30;56319;48.920;2.332;2023-02-14T16:02:32;26.42;30.95
69206;SHT30;56319;48.920;2.332;2023-02-14T16:05:04;26.40;31.04
69206;SHT30;56319;48.920;2.332;2023-02-14T16:07:31;26.28;31.02
69206;SHT30;56319;48.920;2.332;2023-02-14T16:13:15;26.17;31.21
69206;SHT30;56319;48.920;2.332;2023-02-14T16:16:05;26.07;31.25
69206;SHT30;56319;48.920;2.332;2023-02-14T16:18:40;25.99;31.32
69206;SHT30;56319;48.920;2.332;2023-02-14T16:21:14;25.96;31.36
69206;SHT30;56319;48.920;2.332;2023-02-14T16:23:40;25.90;31.39
69206;SHT30;56319;48.920;2.332;2023-02-14T16:26:10;25.80;31.35
69206;SHT30;56319;48.920;2.332;2023-02-14T16:28:36;25.75;31.42
69206;SHT30;56319;48.920;2.332;2023-02-14T16:31:03;25.71;31.45
69206;SHT30;56319;48.920;2.332;2023-02-14T16:33:36;25.63;31.54
69206;SHT30;56319;48.920;2.332;2023-02-14T16:36:24;25.58;31.49
69206;SHT30;56319;48.920;2.332;2023-02-14T16:38:51;25.52;31.50
69206;SHT30;56319;48.920;2.332;2023-02-14T16:41:20;25.47;31.57
69206;SHT30;56319;48.920;2.332;2023-02-14T16:43:46;25.45;31.51
69206;SHT30;56319;48.920;2.332;2023-02-14T16:46:15;25.39;31.55
69206;SHT30;56319;48.920;2.332;2023-02-14T16:48:42;25.34;31.56
69206;SHT30;56319;48.920;2.332;2023-02-14T16:51:11;25.27;31.54
69206;SHT30;56319;48.920;2.332;2023-02-14T16:53:38;25.23;31.53
69206;SHT30;56319;48.920;2.332;2023-02-14T16:56:05;25.21;31.52
69206;SHT30;56319;48.920;2.332;2023-02-14T16:58:34;25.16;31.54
69206;SHT30;56319;48.920;2.332;2023-02-14T17:01:01;25.13;31.61
69206;SHT30;56319;48.920;2.332;2023-02-14T17:03:26;25.07;31.60
69206;SHT30;56319;48.920;2.332;2023-02-14T17:05:55;25.03;31.54
69206;SHT30;56319;48.920;2.332;2023-02-14T17:08:22;25.00;31.56
69206;SHT30;56319;48.920;2.332;2023-02-14T17:10:48;25.02;31.56
69206;SHT30;56319;48.920;2.332;2023-02-14T17:13:19;24.96;31.63
69206;SHT30;56319;48.920;2.332;2023-02-14T17:15:47;24.90;31.61
69206;SHT30;56319;48.920;2.332;2023-02-14T17:18:14;24.92;31.63
69206;SHT30;56319;48.920;2.332;2023-02-14T17:20:42;24.89;31.61